Time;durP1;ratioP1;P1;durP2;ratioP2;P2;SDS_P1;SDS_P2;PMS_P1;PMS_P2;Temp;Humidity;BMP_temperature;BMP_pressure;BME280_temperature;BME280_humidity;BME280_pressure;Samples;Min_cycle;Max_cycle;Signal;HPM_P1;HPM_P2
2021/07/21 00:00:35;;;;;;;9.02;7.55;;;;;;;20.79;65.09;96127.81;5054036;28;20116;-68
2021/07/21 00:03:01;;;;;;;11.10;7.35;;;;;;;20.79;65.84;96133.13;5054070;28;20370;-68
2021/07/21 00:05:27;;;;;;;12.73;7.43;;;;;;;20.84;66.01;96138.84;5053944;28;20497;-68
2021/07/21 00:07:57;;;;;;;9.88;7.78;;;;;;;20.80;66.55;96137.44;5053936;28;20021;-66
2021/07/21 00:10:25;;;;;;;10.88;8.68;;;;;;;20.77;65.97;96137.69;5053820;28;20491;-69
2021/07/21 00:15:39;;;;;;;10.45;8.13;;;;;;;20.68;66.79;96135.88;5054100;28;20071;-70
2021/07/21 00:18:27;;;;;;;8.30;6.38;;;;;;;20.62;65.18;96141.69;5053830;28;20033;-69
2021/07/21 00:20:53;;;;;;;13.70;8.63;;;;;;;20.50;68.05;96136.44;5053804;28;20047;-68
2021/07/21 00:23:19;;;;;;;13.50;7.13;;;;;;;20.43;66.85;96140.59;5053648;28;20021;-67
2021/07/21 00:25:45;;;;;;;7.85;6.88;;;;;;;20.53;65.41;96136.19;5053480;28;20081;-72
2021/07/21 00:28:12;;;;;;;8.23;6.55;;;;;;;20.56;66.08;96138.56;5053443;28;20021;-66
2021/07/21 00:30:37;;;;;;;13.02;7.63;;;;;;;20.54;65.82;96132.56;5053489;28;20104;-69
2021/07/21 00:33:03;;;;;;;15.10;7.18;;;;;;;20.57;66.26;96129.66;5053615;28;20033;-68
2021/07/21 00:35:29;;;;;;;14.50;6.57;;;;;;;20.64;65.76;96129.09;5053435;28;20078;-69
2021/07/21 00:37:55;;;;;;;10.63;7.78;;;;;;;20.54;64.73;96132.56;5053537;28;20025;-66
2021/07/21 00:40:20;;;;;;;14.48;7.18;;;;;;;20.51;67.59;96131.97;5053410;28;20463;-69
2021/07/21 00:42:46;;;;;;;11.77;7.00;;;;;;;20.46;65.16;96132.38;5053383;28;20021;-70
2021/07/21 00:45:12;;;;;;;9.95;7.15;;;;;;;20.46;66.80;96132.38;5053307;28;20497;-68
2021/07/21 00:47:38;;;;;;;14.70;8.20;;;;;;;20.37;64.28;96134.00;5053226;28;20032;-68
2021/07/21 00:50:06;;;;;;;12.90;7.00;;;;;;;20.38;66.15;96124.22;5053224;28;20025;-70
2021/07/21 00:52:39;;;;;;;12.30;6.57;;;;;;;20.39;65.67;96129.41;5052982;28;20479;-71
2021/07/21 00:55:07;;;;;;;11.48;6.78;;;;;;;20.36;64.45;96127.00;5053291;28;20033;-69
2021/07/21 00:57:33;;;;;;;12.10;6.75;;;;;;;20.43;64.75;96127.31;5053267;28;20379;-69
2021/07/21 00:59:59;;;;;;;14.77;6.95;;;;;;;20.41;64.66;96122.13;5052983;28;20025;-70
2021/07/21 01:02:25;;;;;;;12.32;7.43;;;;;;;20.39;64.76;96121.44;5053007;28;20036;-73
2021/07/21 01:04:51;;;;;;;12.18;6.65;;;;;;;20.42;62.97;96118.53;5052439;28;20103;-69
2021/07/21 01:07:17;;;;;;;14.63;6.60;;;;;;;20.44;65.20;96124.53;5052997;28;20025;-72
2021/07/21 01:09:45;;;;;;;10.50;6.65;;;;;;;20.43;65.05;96132.63;5053030;28;20379;-72
2021/07/21 01:12:20;;;;;;;10.93;7.05;;;;;;;20.45;64.31;96128.88;5052907;28;20417;-68
2021/07/21 01:15:11;;;;;;;8.35;6.95;;;;;;;20.43;62.98;96132.63;5052977;28;20026;-68
2021/07/21 01:17:54;;;;;;;12.55;7.25;;;;;;;20.37;64.18;96134.00;5053039;28;20063;-71
2021/07/21 01:20:45;;;;;;;10.80;7.15;;;;;;;20.33;63.86;96124.59;5052953;28;20037;-69
2021/07/21 01:23:22;;;;;;;14.70;8.88;;;;;;;20.29;64.53;96128.50;5052961;28;20383;-69
2021/07/21 01:26:08;;;;;;;12.48;7.25;;;;;;;20.30;64.49;96130.16;5052888;28;20110;-71
2021/07/21 01:28:37;;;;;;;18.45;7.60;;;;;;;20.26;63.82;96118.13;5052844;28;20103;-69
2021/07/21 01:31:07;;;;;;;15.25;8.27;;;;;;;20.22;66.28;96125.50;5052789;28;20060;-70
2021/07/21 01:33:37;;;;;;;18.30;9.23;;;;;;;20.25;63.11;96127.03;5052833;28;20107;-67
2021/07/21 01:36:07;;;;;;;17.10;8.63;;;;;;;20.25;64.53;96135.00;5052726;28;20387;-69
2021/07/21 01:38:37;;;;;;;10.35;8.02;;;;;;;20.19;64.59;96133.72;5052742;28;20078;-69
2021/07/21 01:41:09;;;;;;;18.77;8.85;;;;;;;20.15;63.42;96130.50;5052698;28;20029;-71
2021/07/21 01:43:41;;;;;;;14.25;7.97;;;;;;;20.17;62.72;96135.69;5052744;28;20025;-70
2021/07/21 01:46:08;;;;;;;17.15;7.95;;;;;;;20.09;62.36;96133.66;5052652;28;20025;-71
2021/07/21 01:48:36;;;;;;;17.73;9.10;;;;;;;20.19;64.08;96134.56;5052590;28;20040;-70
2021/07/21 01:51:04;;;;;;;19.10;8.35;;;;;;;20.13;63.50;96123.59;5052478;28;20109;-70
2021/07/21 01:53:33;;;;;;;15.90;7.97;;;;;;;20.14;63.71;96131.44;5052334;28;20045;-68
2021/07/21 01:56:01;;;;;;;18.63;9.45;;;;;;;20.14;64.51;96131.44;5052560;28;20116;-69
2021/07/21 01:58:28;;;;;;;9.88;7.47;;;;;;;20.14;64.25;96133.28;5052529;28;20074;-72
2021/07/21 02:00:55;;;;;;;15.52;7.97;;;;;;;20.12;64.48;96129.91;5052473;28;20040;-71
2021/07/21 02:03:22;;;;;;;14.95;8.95;;;;;;;20.11;64.19;96137.03;5052420;28;20025;-69
2021/07/21 02:05:53;;;;;;;14.25;8.73;;;;;;;20.09;63.78;96128.34;5052409;28;20032;-71
2021/07/21 02:08:21;;;;;;;12.15;8.25;;;;;;;20.05;61.77;96133.06;5051284;28;20029;-71
2021/07/21 02:10:47;;;;;;;13.85;8.35;;;;;;;20.10;63.97;96130.03;5052343;28;20021;-67
2021/07/21 02:13:16;;;;;;;20.40;9.30;;;;;;;20.04;64.10;96133.19;5052348;28;20044;-71
2021/07/21 02:15:44;;;;;;;13.65;8.55;;;;;;;20.06;62.94;96133.91;5055121;28;20021;-71
2021/07/21 02:18:10;;;;;;;19.05;9.05;;;;;;;20.01;64.10;96138.75;5056213;28;20032;-72
2021/07/21 02:20:37;;;;;;;16.27;8.90;;;;;;;20.05;64.70;96143.69;5055922;28;20025;-70
2021/07/21 02:23:04;;;;;;;18.77;8.85;;;;;;;20.09;63.94;96146.94;5055986;28;20378;-69
2021/07/21 02:25:29;;;;;;;21.88;9.48;;;;;;;20.07;63.23;96151.50;5055788;28;20108;-69
2021/07/21 02:27:57;;;;;;;15.20;8.88;;;;;;;20.07;64.07;96152.38;5055923;28;20112;-71
2021/07/21 02:30:23;;;;;;;18.42;10.90;;;;;;;20.06;64.17;96148.03;5055895;28;20033;-72
2021/07/21 02:32:56;;;;;;;15.48;9.25;;;;;;;19.99;64.32;96151.28;5055814;28;20356;-67
2021/07/21 02:35:22;;;;;;;14.38;9.05;;;;;;;20.02;64.82;96145.75;5055840;28;20467;-70
2021/07/21 02:37:49;;;;;;;20.33;9.77;;;;;;;20.00;63.43;96145.00;5055695;28;20059;-69
2021/07/21 02:40:16;;;;;;;17.42;8.68;;;;;;;19.99;63.69;96146.84;5055696;28;20043;-70
2021/07/21 02:42:42;;;;;;;16.33;9.27;;;;;;;20.02;64.18;96138.63;5055612;28;20462;-68
2021/07/21 02:45:08;;;;;;;19.63;10.30;;;;;;;20.03;63.62;96150.94;5055511;28;20032;-73
2021/07/21 02:47:34;;;;;;;21.65;10.05;;;;;;;20.08;63.70;96138.13;5055586;28;20151;-68
2021/07/21 02:50:00;;;;;;;19.80;9.15;;;;;;;20.07;62.47;96144.41;5055365;28;20053;-72
2021/07/21 02:52:32;;;;;;;14.77;9.20;;;;;;;20.16;60.87;96145.44;5055118;28;20029;-71
2021/07/21 02:55:19;;;;;;;18.20;9.75;;;;;;;20.24;62.09;96143.97;5055438;28;20371;-67
2021/07/21 02:57:57;;;;;;;19.48;10.60;;;;;;;20.31;62.57;96150.44;5055461;28;20111;-71
2021/07/21 03:00:26;;;;;;;21.50;9.27;;;;;;;20.35;62.02;96151.88;5055264;28;20017;-70
2021/07/21 03:02:53;;;;;;;15.73;9.43;;;;;;;20.40;61.93;96149.66;5055202;28;20028;-71
2021/07/21 03:05:23;;;;;;;17.60;8.93;;;;;;;20.41;61.22;96154.00;5055148;28;20025;-71
2021/07/21 03:07:52;;;;;;;21.50;10.68;;;;;;;20.43;60.91;96161.84;5055301;28;20036;-71
2021/07/21 03:10:18;;;;;;;14.88;10.20;;;;;;;20.44;60.79;96160.88;5055197;28;20095;-71
2021/07/21 03:12:49;;;;;;;15.18;9.20;;;;;;;20.51;61.09;96169.16;5054945;28;20029;-71
2021/07/21 03:15:15;;;;;;;;;;;;;;;20.55;61.89;96167.94;5055320;28;20121;-71
2021/07/21 03:17:45;;;;;;;24.17;10.80;;;;;;;20.56;59.96;96173.09;5054959;28;19913;-71
2021/07/21 03:20:12;;;;;;;17.73;9.98;;;;;;;20.58;60.53;96167.66;5054877;28;20091;-70
2021/07/21 03:22:40;;;;;;;21.42;10.98;;;;;;;20.54;60.65;96169.75;5054848;28;20025;-71
2021/07/21 03:25:09;;;;;;;15.05;9.57;;;;;;;20.64;60.48;96174.28;5054743;28;20083;-72
2021/07/21 03:27:37;;;;;;;20.05;10.30;;;;;;;20.62;61.50;96174.41;5054049;28;20032;-72
2021/07/21 03:30:06;;;;;;;13.35;9.55;;;;;;;20.64;60.33;96174.28;5054639;28;20060;-68
2021/07/21 03:32:32;;;;;;;21.23;10.60;;;;;;;20.76;59.18;96173.22;5054887;28;20057;-69
2021/07/21 03:34:58;;;;;;;22.23;11.05;;;;;;;20.81;60.70;96170.19;5054621;28;20048;-71
2021/07/21 03:37:25;;;;;;;18.00;10.30;;;;;;;20.81;59.43;96173.69;5054481;28;20096;-69
2021/07/21 03:39:56;;;;;;;21.92;11.35;;;;;;;20.92;60.27;96172.78;5054659;28;20430;-68
2021/07/21 03:42:24;;;;;;;16.10;9.60;;;;;;;21.03;59.18;96179.00;5054797;28;20033;-71
2021/07/21 03:44:52;;;;;;;20.85;10.15;;;;;;;21.12;58.35;96180.00;5054331;28;20068;-68
2021/07/21 03:47:18;;;;;;;21.35;11.15;;;;;;;21.31;59.83;96181.94;5054338;28;20025;-70
2021/07/21 03:49:46;;;;;;;17.10;10.32;;;;;;;21.44;58.22;96189.66;5054444;28;20025;-67
2021/07/21 03:52:13;;;;;;;16.55;10.43;;;;;;;21.66;58.12;96188.59;5053943;28;20801;-71
2021/07/21 03:54:39;;;;;;;16.38;10.63;;;;;;;22.04;57.99;96194.16;5054216;28;20514;-70
2021/07/21 03:57:07;;;;;;;18.23;10.55;;;;;;;22.42;57.20;96194.28;5054225;28;20025;-70
2021/07/21 03:59:33;;;;;;;16.33;10.43;;;;;;;22.87;55.28;96202.66;5054073;28;20032;-69
2021/07/21 04:02:00;;;;;;;16.15;10.52;;;;;;;23.33;53.57;96199.31;5054014;28;20025;-69
2021/07/21 04:04:26;;;;;;;18.98;10.32;;;;;;;23.79;55.17;96195.84;5054034;28;20036;-74
2021/07/21 04:06:53;;;;;;;17.77;10.38;;;;;;;24.15;52.70;96198.59;5054133;28;20025;-72
2021/07/21 04:09:22;;;;;;;13.85;10.27;;;;;;;24.52;51.13;96198.56;5053997;28;20378;-71
2021/07/21 04:11:53;;;;;;;18.85;10.35;;;;;;;24.94;51.08;96197.91;5053801;28;20471;-74
2021/07/21 04:14:20;;;;;;;16.60;9.88;;;;;;;25.38;50.83;96203.34;5053785;28;20025;-72
2021/07/21 04:16:48;;;;;;;16.33;10.75;;;;;;;25.66;49.67;96208.50;5053852;28;20021;-72
2021/07/21 04:19:15;;;;;;;12.80;9.93;;;;;;;25.93;49.72;96211.94;5053735;28;20039;-71
2021/07/21 04:21:44;;;;;;;16.27;9.45;;;;;;;26.25;48.26;96213.00;5053817;28;20028;-73
2021/07/21 04:24:10;;;;;;;20.00;9.98;;;;;;;26.51;46.15;96211.22;5053536;28;20028;-72
2021/07/21 04:26:38;;;;;;;18.42;10.05;;;;;;;26.80;48.06;96201.81;5053546;28;20021;-72
2021/07/21 04:29:04;;;;;;;16.35;9.60;;;;;;;27.11;46.09;96207.31;5053567;28;20017;-73
2021/07/21 04:31:30;;;;;;;14.15;10.02;;;;;;;27.24;44.84;96204.09;5053629;28;20020;-68
2021/07/21 04:33:59;;;;;;;16.98;10.35;;;;;;;27.45;44.60;96213.44;5053489;28;20035;-71
2021/07/21 04:36:25;;;;;;;13.93;9.65;;;;;;;27.71;42.54;96212.34;5053508;28;20375;-72
2021/07/21 04:38:52;;;;;;;15.50;10.52;;;;;;;27.94;43.91;96222.31;5052467;28;20052;-68
2021/07/21 04:41:21;;;;;;;12.60;9.95;;;;;;;27.97;43.42;96213.06;5053343;28;20051;-68
2021/07/21 04:43:47;;;;;;;18.25;10.48;;;;;;;28.11;41.43;96217.69;5053447;28;20055;-68
2021/07/21 04:46:15;;;;;;;15.82;10.60;;;;;;;28.10;40.64;96220.53;5053308;28;20053;-69
2021/07/21 04:48:42;;;;;;;17.15;10.10;;;;;;;28.30;42.29;96218.28;5053313;28;20059;-70
2021/07/21 04:51:10;;;;;;;16.55;10.07;;;;;;;28.41;41.92;96219.69;5053112;28;20486;-69
2021/07/21 04:53:36;;;;;;;16.80;9.80;;;;;;;28.65;41.77;96219.69;5052949;28;20372;-70
2021/07/21 04:56:02;;;;;;;18.25;9.85;;;;;;;28.93;40.50;96225.38;5051910;28;20090;-68
2021/07/21 04:58:27;;;;;;;20.98;9.90;;;;;;;29.08;40.16;96229.94;5053122;28;20449;-70
2021/07/21 05:00:54;;;;;;;14.95;10.70;;;;;;;29.37;41.99;96231.81;5053027;28;20044;-70
2021/07/21 05:03:20;;;;;;;18.40;10.90;;;;;;;29.62;40.21;96241.50;5053009;28;20053;-68
2021/07/21 05:05:45;;;;;;;18.20;11.25;;;;;;;29.77;38.62;96231.53;5053058;28;20107;-69
2021/07/21 05:08:11;;;;;;;18.42;10.25;;;;;;;29.82;39.52;96246.28;5052959;28;20052;-68
2021/07/21 05:10:37;;;;;;;14.93;10.25;;;;;;;29.84;40.45;96234.31;5052961;28;20075;-68
2021/07/21 05:13:03;;;;;;;16.33;10.23;;;;;;;29.82;38.94;96238.22;5052924;28;20475;-66
2021/07/21 05:15:30;;;;;;;15.05;10.25;;;;;;;29.99;39.77;96234.31;5052919;28;20135;-68
2021/07/21 05:17:57;;;;;;;14.38;9.35;;;;;;;30.14;38.13;96236.97;5052992;28;20554;-70
2021/07/21 05:20:22;;;;;;;18.70;10.52;;;;;;;30.19;38.27;96233.69;5052971;28;20390;-67
2021/07/21 05:22:48;;;;;;;15.95;10.25;;;;;;;29.90;37.63;96240.81;5052953;28;20029;-69
2021/07/21 05:25:15;;;;;;;17.42;9.13;;;;;;;30.00;38.60;96244.06;5052791;28;20029;-68
2021/07/21 05:27:41;;;;;;;16.80;10.57;;;;;;;29.81;38.70;96247.31;5052790;28;20021;-67
2021/07/21 05:30:07;;;;;;;13.38;10.10;;;;;;;29.86;37.63;96250.31;5052753;28;20498;-68
2021/07/21 05:32:33;;;;;;;13.57;10.02;;;;;;;29.97;38.77;96251.66;5052889;28;20040;-68
2021/07/21 05:34:59;;;;;;;14.63;9.55;;;;;;;30.09;37.66;96257.41;5052863;28;20029;-69
2021/07/21 05:37:25;;;;;;;13.15;10.02;;;;;;;30.13;36.95;96256.84;5052688;28;20028;-68
2021/07/21 05:39:50;;;;;;;17.27;10.45;;;;;;;30.59;38.30;96252.19;5052734;28;20043;-69
2021/07/21 05:42:16;;;;;;;18.20;9.95;;;;;;;30.79;36.03;96254.22;5052719;28;20486;-68
2021/07/21 05:44:42;;;;;;;19.98;10.00;;;;;;;30.65;38.63;96261.34;5052495;28;20429;-68
2021/07/21 05:47:07;;;;;;;25.35;11.00;;;;;;;30.60;36.52;96253.84;5052768;28;20044;-67
2021/07/21 05:49:33;;;;;;;19.90;10.25;;;;;;;30.49;37.02;96260.56;5053686;28;20021;-68
2021/07/21 05:51:59;;;;;;;17.23;11.07;;;;;;;30.73;36.84;96253.13;5056297;28;20449;-69
2021/07/21 05:54:24;;;;;;;17.88;10.70;;;;;;;30.98;38.79;96260.84;5056519;28;20110;-68
2021/07/21 05:56:50;;;;;;;12.85;9.65;;;;;;;30.77;34.90;96265.25;5056412;28;20100;-70
2021/07/21 05:59:16;;;;;;;16.77;10.90;;;;;;;30.82;35.21;96274.63;5056427;28;20020;-69
2021/07/21 06:01:41;;;;;;;16.75;9.88;;;;;;;30.97;35.22;96269.16;5056366;28;20017;-68
2021/07/21 06:04:08;;;;;;;12.82;9.95;;;;;;;31.04;36.02;96271.88;5056321;28;20037;-68
2021/07/21 06:06:34;;;;;;;13.88;10.10;;;;;;;31.26;34.63;96256.47;5056299;28;20111;-69
2021/07/21 06:08:59;;;;;;;15.98;9.57;;;;;;;31.21;35.06;96267.06;5056228;28;20059;-69
2021/07/21 06:11:25;;;;;;;18.13;10.98;;;;;;;31.27;34.81;96261.69;5056244;28;20068;-69
2021/07/21 06:13:51;;;;;;;21.27;10.48;;;;;;;31.47;34.77;96274.53;5056068;28;20013;-69
2021/07/21 06:16:17;;;;;;;15.07;10.02;;;;;;;31.56;35.02;96272.50;5056026;28;20025;-69
2021/07/21 06:18:44;;;;;;;13.50;9.52;;;;;;;31.76;34.47;96277.19;5056100;28;20033;-69
2021/07/21 06:21:10;;;;;;;14.95;10.75;;;;;;;31.70;33.20;96278.81;5055977;28;20029;-69
2021/07/21 06:23:36;;;;;;;15.60;10.45;;;;;;;31.67;35.16;96268.41;5056058;28;20082;-68
2021/07/21 06:26:02;;;;;;;18.35;10.35;;;;;;;31.80;33.98;96275.75;5055808;28;20375;-68
2021/07/21 06:28:27;;;;;;;22.48;10.20;;;;;;;31.99;34.97;96276.09;5055865;28;20086;-69
2021/07/21 06:30:53;;;;;;;13.93;10.52;;;;;;;32.19;33.97;96269.91;5055844;28;20025;-69
2021/07/21 06:33:19;;;;;;;18.60;11.13;;;;;;;32.32;33.46;96271.81;5055783;28;20025;-68
2021/07/21 06:35:48;;;;;;;13.80;10.23;;;;;;;32.65;33.04;96274.63;5055781;28;20033;-69
2021/07/21 06:38:15;;;;;;;16.20;10.60;;;;;;;32.64;30.96;96270.25;5055600;28;20021;-68
2021/07/21 06:40:41;;;;;;;15.55;10.85;;;;;;;32.72;30.51;96274.63;5055763;28;20029;-70
2021/07/21 06:43:08;;;;;;;17.20;10.75;;;;;;;32.27;32.00;96278.66;5055624;28;20021;-69
2021/07/21 06:45:34;;;;;;;17.83;10.65;;;;;;;32.24;32.87;96279.06;5055438;28;20509;-69
2021/07/21 06:48:00;;;;;;;14.18;10.40;;;;;;;32.25;34.50;96269.94;5055457;28;20025;-69
2021/07/21 06:50:26;;;;;;;18.65;10.90;;;;;;;32.22;33.28;96277.59;5055411;28;20017;-68
2021/07/21 06:52:52;;;;;;;20.90;11.00;;;;;;;31.81;32.68;96284.69;5055210;28;20047;-69
2021/07/21 06:55:18;;;;;;;16.80;10.27;;;;;;;32.02;33.08;96270.25;5055319;28;20111;-69
2021/07/21 06:57:44;;;;;;;14.95;10.50;;;;;;;31.99;32.69;96274.19;5055254;28;20100;-68
2021/07/21 07:00:10;;;;;;;18.60;10.10;;;;;;;32.15;34.88;96274.88;5055385;28;20025;-69
2021/07/21 07:02:35;;;;;;;14.32;10.60;;;;;;;32.22;33.85;96266.78;5054142;28;20029;-69
2021/07/21 07:05:02;;;;;;;15.88;9.80;;;;;;;31.92;32.43;96278.75;5054984;28;20017;-69
2021/07/21 07:07:28;;;;;;;14.25;10.05;;;;;;;31.55;32.89;96276.25;5055258;28;20170;-69
2021/07/21 07:09:54;;;;;;;16.67;10.73;;;;;;;31.51;33.67;96269.53;5055149;28;20059;-70
2021/07/21 07:12:20;;;;;;;15.68;10.95;;;;;;;31.42;32.62;96270.75;5055083;28;20471;-69
2021/07/21 07:14:46;;;;;;;18.05;10.80;;;;;;;31.26;33.92;96287.03;5054956;28;20029;-69
2021/07/21 07:17:11;;;;;;;16.98;10.57;;;;;;;31.48;33.51;96275.38;5055020;28;20108;-70
2021/07/21 07:19:37;;;;;;;19.58;11.23;;;;;;;31.46;33.98;96272.88;5053628;28;20166;-68
2021/07/21 07:22:04;;;;;;;16.70;10.80;;;;;;;31.28;33.70;96284.94;5054800;28;20036;-69
2021/07/21 07:24:30;;;;;;;17.05;10.98;;;;;;;31.13;35.94;96284.22;5054857;28;20021;-72
2021/07/21 07:26:57;;;;;;;14.75;10.43;;;;;;;31.23;34.64;96278.47;5054735;28;20029;-70
2021/07/21 07:29:22;;;;;;;15.90;10.15;;;;;;;31.72;33.94;96278.63;5054668;28;20017;-71
2021/07/21 07:31:48;;;;;;;21.23;12.05;;;;;;;31.39;33.97;96282.75;5054576;28;20025;-69
2021/07/21 07:34:14;;;;;;;15.35;10.90;;;;;;;31.41;34.08;96283.41;5054811;28;20017;-71
2021/07/21 07:36:39;;;;;;;21.25;11.35;;;;;;;30.99;33.09;96288.66;5054659;28;20025;-70
2021/07/21 07:39:07;;;;;;;20.20;10.90;;;;;;;30.66;34.65;96291.88;5054545;28;20421;-69
2021/07/21 07:41:34;;;;;;;15.52;10.95;;;;;;;30.83;33.74;96287.06;5054462;28;20098;-70
2021/07/21 07:44:00;;;;;;;18.13;10.48;;;;;;;30.97;34.59;96293.44;5054474;28;20040;-69
2021/07/21 07:46:26;;;;;;;18.55;10.93;;;;;;;31.16;34.58;96283.84;5054305;28;20039;-71
2021/07/21 07:48:54;;;;;;;14.90;11.23;;;;;;;30.92;33.92;96294.03;5054438;28;20079;-70
2021/07/21 07:51:21;;;;;;;20.27;11.40;;;;;;;31.12;34.19;96296.88;5054320;28;20028;-69
2021/07/21 07:53:47;;;;;;;20.70;10.90;;;;;;;31.38;35.97;96291.91;5054151;28;20487;-70
2021/07/21 07:56:12;;;;;;;15.10;10.30;;;;;;;31.58;34.29;96275.00;5054284;28;20028;-70
2021/07/21 07:58:38;;;;;;;18.65;11.50;;;;;;;31.52;33.16;96274.75;5054170;28;20116;-71
2021/07/21 08:01:04;;;;;;;16.30;11.05;;;;;;;31.49;32.78;96279.72;5054135;28;20021;-69
2021/07/21 08:03:30;;;;;;;16.90;11.05;;;;;;;31.18;33.87;96284.44;5054125;28;20033;-70
2021/07/21 08:05:57;;;;;;;18.33;10.55;;;;;;;31.11;34.02;96287.13;5053926;28;20021;-69
2021/07/21 08:08:23;;;;;;;19.02;11.00;;;;;;;31.22;35.13;96283.06;5053988;28;20032;-70
2021/07/21 08:10:49;;;;;;;19.60;10.93;;;;;;;31.56;34.68;96272.50;5053999;28;20021;-73
2021/07/21 08:13:15;;;;;;;17.77;10.73;;;;;;;31.73;32.09;96288.38;5053705;28;20379;-69
2021/07/21 08:15:41;;;;;;;18.00;11.52;;;;;;;31.71;32.65;96288.59;5053818;28;20037;-71
2021/07/21 08:18:07;;;;;;;19.63;11.05;;;;;;;31.68;34.07;96285.44;5053780;28;20025;-71
2021/07/21 08:20:33;;;;;;;12.90;9.95;;;;;;;31.51;32.54;96277.66;5053723;28;20037;-71
2021/07/21 08:22:58;;;;;;;15.32;10.70;;;;;;;31.88;35.31;96299.06;5052432;28;20069;-69
2021/07/21 08:25:24;;;;;;;14.27;10.43;;;;;;;31.53;32.98;96283.69;5053560;28;20025;-71
2021/07/21 08:27:52;;;;;;;17.83;10.30;;;;;;;31.67;34.11;96281.06;5053784;28;20493;-71
2021/07/21 08:30:18;;;;;;;14.27;10.55;;;;;;;31.75;32.20;96270.94;5053668;28;20022;-70
2021/07/21 08:32:49;;;;;;;12.93;9.95;;;;;;;31.84;32.00;96276.19;5053573;28;20060;-71
2021/07/21 08:35:21;;;;;;;16.00;10.38;;;;;;;31.84;33.00;96287.00;5053534;28;20025;-70
2021/07/21 08:37:46;;;;;;;17.42;11.15;;;;;;;31.74;31.85;96280.09;5053547;28;20029;-70
2021/07/21 08:40:13;;;;;;;19.13;11.00;;;;;;;31.70;32.54;96272.56;5053375;28;20455;-71
2021/07/21 08:42:40;;;;;;;16.00;10.38;;;;;;;31.78;31.52;96280.50;5053412;28;20029;-71
2021/07/21 08:45:07;;;;;;;17.17;10.95;;;;;;;31.49;31.87;96285.97;5053353;28;20059;-69
2021/07/21 08:47:33;;;;;;;18.35;11.45;;;;;;;31.51;32.04;96281.19;5053413;28;20029;-69
2021/07/21 08:49:59;;;;;;;15.05;11.02;;;;;;;31.74;32.74;96284.66;5053348;28;20505;-69
2021/07/21 08:52:26;;;;;;;16.38;10.98;;;;;;;31.64;32.43;96274.22;5053136;28;20037;-71
2021/07/21 08:54:58;;;;;;;17.92;11.20;;;;;;;31.85;33.63;96281.41;5053273;28;20025;-70
2021/07/21 08:57:23;;;;;;;17.20;11.02;;;;;;;32.10;32.05;96271.94;5053385;28;20029;-70
2021/07/21 08:59:49;;;;;;;16.15;10.30;;;;;;;32.11;32.10;96270.94;5053235;28;20020;-70
2021/07/21 09:02:15;;;;;;;14.52;11.00;;;;;;;32.27;31.33;96275.13;5053176;28;20025;-70
2021/07/21 09:04:41;;;;;;;19.23;12.85;;;;;;;32.21;30.08;96257.00;5052883;28;20028;-71
2021/07/21 09:07:08;;;;;;;22.88;12.82;;;;;;;32.24;31.56;96270.94;5053042;28;20020;-71
2021/07/21 09:09:34;;;;;;;23.20;12.13;;;;;;;32.14;31.19;96267.78;5053089;28;20025;-69
2021/07/21 09:12:01;;;;;;;19.02;11.82;;;;;;;32.17;31.21;96253.06;5052992;28;20056;-70
2021/07/21 09:14:27;;;;;;;15.38;11.90;;;;;;;32.36;29.69;96260.38;5052895;28;20371;-69
2021/07/21 09:17:10;;;;;;;17.92;12.32;;;;;;;32.43;28.90;96271.22;5052986;28;20037;-70
2021/07/21 09:19:39;;;;;;;18.23;12.05;;;;;;;32.14;29.71;96270.50;5052917;28;20394;-69
2021/07/21 09:22:12;;;;;;;16.35;11.93;;;;;;;31.95;32.02;96263.97;5053076;28;20426;-69
2021/07/21 09:24:38;;;;;;;16.02;11.57;;;;;;;31.99;31.08;96266.09;5054124;28;20025;-70
2021/07/21 09:27:04;;;;;;;18.50;12.13;;;;;;;32.00;32.03;96262.34;5057184;28;20537;-70
2021/07/21 09:29:29;;;;;;;15.38;10.38;;;;;;;31.92;30.37;96259.81;5056945;28;20033;-71
2021/07/21 09:31:59;;;;;;;17.95;12.75;;;;;;;31.63;30.75;96259.84;5057043;28;20036;-70
2021/07/21 09:34:26;;;;;;;19.60;11.93;;;;;;;31.64;30.00;96263.41;5057041;28;20029;-69
2021/07/21 09:37:07;;;;;;;18.92;11.82;;;;;;;31.49;29.95;96256.25;5056845;28;20514;-69
2021/07/21 09:39:34;;;;;;;15.13;11.48;;;;;;;31.36;33.06;96256.16;5056950;28;20071;-70
2021/07/21 09:42:00;;;;;;;17.20;11.43;;;;;;;31.15;30.25;96265.94;5056917;28;20110;-70
2021/07/21 09:44:39;;;;;;;18.02;11.65;;;;;;;31.06;28.77;96256.34;5056678;28;20040;-70
2021/07/21 09:47:20;;;;;;;17.55;11.23;;;;;;;31.05;30.25;96254.66;5056605;28;20043;-71
2021/07/21 09:49:46;;;;;;;18.52;10.88;;;;;;;31.21;31.05;96253.53;5056705;28;20456;-69
2021/07/21 09:52:20;;;;;;;15.18;11.77;;;;;;;31.24;29.49;96253.16;5056365;28;20386;-69
2021/07/21 09:55:12;;;;;;;15.57;10.82;;;;;;;31.31;29.77;96253.19;5056518;28;20060;-70
2021/07/21 09:57:39;;;;;;;15.80;11.38;;;;;;;31.32;28.71;96247.59;5056468;28;20032;-71
2021/07/21 10:00:28;;;;;;;15.27;11.32;;;;;;;31.52;28.61;96252.31;5056326;28;20025;-69
2021/07/21 10:03:21;;;;;;;18.05;11.73;;;;;;;31.33;30.82;96246.53;5056363;28;20028;-69
2021/07/21 10:06:09;;;;;;;15.15;11.10;;;;;;;31.12;30.53;96244.75;5056425;28;20371;-70
2021/07/21 10:08:44;;;;;;;19.58;11.77;;;;;;;30.99;28.71;96248.19;5056292;28;20040;-69
2021/07/21 10:11:27;;;;;;;13.68;10.52;;;;;;;31.12;30.78;96247.47;5056294;28;20032;-69
2021/07/21 10:14:00;;;;;;;18.52;10.25;;;;;;;31.10;30.13;96236.84;5056151;28;20036;-69
2021/07/21 10:16:46;;;;;;;17.75;11.05;;;;;;;31.17;29.79;96231.50;5056140;28;20496;-69
2021/07/21 10:19:28;;;;;;;13.40;10.13;;;;;;;31.23;30.60;96228.00;5056133;28;20024;-71
2021/07/21 10:21:59;;;;;;;14.20;11.35;;;;;;;31.48;31.62;96213.22;5056064;28;20551;-72
2021/07/21 10:24:29;;;;;;;17.83;10.77;;;;;;;31.42;27.94;96228.34;5055909;28;20051;-68
2021/07/21 10:26:55;;;;;;;15.07;11.27;;;;;;;31.38;29.26;96222.53;5055987;28;20029;-71
2021/07/21 10:29:23;;;;;;;14.10;10.25;;;;;;;31.39;29.64;96221.47;5055851;28;20254;-71
2021/07/21 10:31:49;;;;;;;17.02;10.82;;;;;;;31.34;29.44;96223.09;5055766;28;20474;-69
2021/07/21 10:34:17;;;;;;;16.25;10.23;;;;;;;31.38;30.04;96227.09;5055834;28;20044;-72
2021/07/21 10:36:43;;;;;;;14.98;9.45;;;;;;;31.29;30.07;96220.97;5055786;28;20052;-69
2021/07/21 10:39:33;;;;;;;13.13;9.85;;;;;;;31.17;29.41;96215.28;5055816;28;20506;-70
2021/07/21 10:42:07;;;;;;;17.17;10.13;;;;;;;31.17;29.45;96223.38;5055838;28;20159;-69
2021/07/21 10:44:33;;;;;;;12.55;9.20;;;;;;;31.28;30.03;96216.63;5055645;28;20482;-71
2021/07/21 10:47:00;;;;;;;13.88;9.95;;;;;;;31.19;30.24;96223.19;5055692;28;20484;-72
2021/07/21 11:00:22;;;;;;;12.80;8.77;;;;;;;31.14;28.75;96207.59;5055642;28;20039;-71
2021/07/21 11:02:52;;;;;;;13.82;9.50;;;;;;;31.38;28.39;96202.78;5055329;28;20437;-72
2021/07/21 11:05:26;;;;;;;17.83;9.70;;;;;;;31.31;29.89;96200.00;5055218;28;20486;-70
2021/07/21 11:07:53;;;;;;;14.32;9.75;;;;;;;31.49;27.40;96196.81;5055100;28;20028;-70
2021/07/21 11:10:39;;;;;;;17.38;9.82;;;;;;;31.60;27.50;96191.88;5055041;28;20024;-70
2021/07/21 11:13:10;;;;;;;13.18;8.82;;;;;;;31.20;27.23;96193.28;5055227;28;20048;-71
2021/07/21 11:15:40;;;;;;;16.17;9.02;;;;;;;31.09;30.36;96193.84;5055151;28;20029;-72
2021/07/21 11:18:24;;;;;;;13.20;8.82;;;;;;;30.71;27.62;96189.59;5055098;28;20033;-68
2021/07/21 11:21:00;;;;;;;11.85;8.50;;;;;;;30.43;29.61;96193.09;5055003;28;20018;-72
2021/07/21 11:23:48;;;;;;;10.82;8.20;;;;;;;30.67;29.73;96188.31;5053660;28;20498;-70
2021/07/21 11:26:34;;;;;;;13.85;8.65;;;;;;;30.80;27.93;96187.63;5054830;28;20029;-70
2021/07/21 11:29:25;;;;;;;12.48;7.53;;;;;;;30.97;28.45;96180.06;5054878;28;20040;-71
2021/07/21 11:31:53;;;;;;;16.40;8.82;;;;;;;30.93;27.07;96190.41;5053466;28;20059;-70
2021/07/21 11:34:42;;;;;;;15.98;8.13;;;;;;;30.84;29.28;96184.34;5054657;28;20063;-72
2021/07/21 11:37:16;;;;;;;10.52;7.38;;;;;;;30.79;27.03;96186.75;5054774;28;20056;-72
2021/07/21 11:39:52;;;;;;;13.55;8.00;;;;;;;30.74;27.80;96176.56;5054687;28;20032;-70
2021/07/21 11:42:26;;;;;;;12.23;7.95;;;;;;;30.75;26.69;96175.50;5054709;28;20526;-69